Time;durP1;ratioP1;P1;durP2;ratioP2;P2;SDS_P1;SDS_P2;PMS_P1;PMS_P2;Temp;Humidity;BMP_temperature;BMP_pressure;BME280_temperature;BME280_humidity;BME280_pressure;Samples;Min_cycle;Max_cycle;Signal;HPM_P1;HPM_P2
2022/05/11 00:00:52;;;;;;;8.85;6.40;;;;;;;9.95;100.00;93285.41;2115231;28;20024;-79
2022/05/11 00:01:53;;;;;;;6.60;5.88;;;;;;;9.87;100.00;93280.59;2105786;28;20537;-80
2022/05/11 00:02:54;;;;;;;7.35;5.95;;;;;;;9.97;100.00;93285.03;2092299;28;20447;-80
2022/05/11 00:03:56;;;;;;;9.13;5.70;;;;;;;9.96;100.00;93284.25;2090299;28;20021;-80
2022/05/11 00:04:57;;;;;;;9.35;5.95;;;;;;;9.85;100.00;93283.69;2098027;28;20028;-79
2022/05/11 00:05:58;;;;;;;8.23;6.20;;;;;;;9.83;100.00;93284.09;2098263;28;20048;-79
2022/05/11 00:06:59;;;;;;;10.57;5.63;;;;;;;9.89;100.00;93279.03;2098587;28;20073;-78
2022/05/11 00:08:01;;;;;;;7.95;6.30;;;;;;;9.83;100.00;93283.31;2101263;28;20053;-79
2022/05/11 00:09:04;;;;;;;12.88;5.72;;;;;;;9.80;100.00;93284.16;2107815;28;20449;-79
2022/05/11 00:10:12;;;;;;;8.20;5.80;;;;;;;9.94;100.00;93286.56;2090371;28;20070;-80
2022/05/11 00:11:14;;;;;;;7.15;5.85;;;;;;;9.76;100.00;93278.09;2091068;28;20552;-79
2022/05/11 00:12:15;;;;;;;6.38;5.78;;;;;;;9.72;100.00;93275.50;2091844;28;20025;-80
2022/05/11 00:13:16;;;;;;;6.68;5.97;;;;;;;9.82;100.00;93279.91;2089742;28;20045;-78
2022/05/11 00:14:17;;;;;;;6.97;5.70;;;;;;;9.81;100.00;93280.31;2097569;28;20052;-80
2022/05/11 00:15:21;;;;;;;6.35;5.75;;;;;;;9.74;100.00;93277.75;2107975;28;20753;-80
2022/05/11 00:16:25;;;;;;;6.15;5.55;;;;;;;9.56;100.00;93281.44;2115197;28;20027;-79
2022/05/11 00:17:26;;;;;;;7.68;5.97;;;;;;;9.57;100.00;93274.97;2102021;28;20050;-79
2022/05/11 00:18:27;;;;;;;9.88;6.15;;;;;;;9.57;100.00;93276.88;2103435;28;20446;-80
2022/05/11 00:19:28;;;;;;;6.32;5.70;;;;;;;9.57;100.00;93277.63;2107000;27;20024;-79
2022/05/11 00:20:29;;;;;;;6.53;5.90;;;;;;;9.53;100.00;93278.84;2106899;28;20043;-79
2022/05/11 00:21:30;;;;;;;7.32;6.50;;;;;;;9.54;100.00;93272.34;2115162;27;20181;-80
2022/05/11 00:22:31;;;;;;;10.98;7.03;;;;;;;9.57;100.00;93282.97;2132329;27;20018;-79
2022/05/11 00:23:32;;;;;;;8.02;6.80;;;;;;;9.58;100.00;93273.81;2116200;27;20055;-80
2022/05/11 00:24:33;;;;;;;8.68;6.38;;;;;;;9.61;100.00;93276.81;2106840;28;20026;-79
2022/05/11 00:25:34;;;;;;;6.63;5.90;;;;;;;9.64;100.00;93268.75;2114791;27;20035;-80
2022/05/11 00:26:35;;;;;;;9.02;6.63;;;;;;;9.57;100.00;93266.97;2106062;28;20020;-79
2022/05/11 00:27:37;;;;;;;7.70;6.43;;;;;;;9.64;100.00;93265.34;2110115;28;20399;-79
2022/05/11 00:28:38;;;;;;;6.93;6.22;;;;;;;9.65;100.00;93269.50;2102109;28;20024;-79
2022/05/11 00:29:39;;;;;;;6.88;6.28;;;;;;;9.58;100.00;93267.72;2090934;28;20420;-80
2022/05/11 00:30:39;;;;;;;9.90;6.05;;;;;;;9.57;100.00;93269.63;2090039;28;20029;-79
2022/05/11 00:31:41;;;;;;;8.90;6.30;;;;;;;9.55;100.00;93265.84;2094099;28;20107;-80
2022/05/11 00:32:42;;;;;;;7.25;5.82;;;;;;;9.54;100.00;93262.44;2116018;28;20091;-80
2022/05/11 00:33:43;;;;;;;7.82;6.32;;;;;;;9.57;100.00;93266.22;2106701;28;20412;-79
2022/05/11 00:34:44;;;;;;;7.63;6.47;;;;;;;9.50;100.00;93274.31;2081775;28;20029;-80
2022/05/11 00:35:47;;;;;;;7.60;6.72;;;;;;;9.54;100.00;93270.44;2098185;28;20103;-79
2022/05/11 00:36:50;;;;;;;9.05;6.55;;;;;;;9.49;100.00;93264.81;2106861;28;20033;-80
2022/05/11 00:37:51;;;;;;;9.15;6.57;;;;;;;9.56;100.00;93273.44;2120263;27;20015;-78
2022/05/11 00:38:52;;;;;;;7.20;6.47;;;;;;;9.54;100.00;93269.69;2101211;28;20032;-78
2022/05/11 00:39:53;;;;;;;6.85;6.25;;;;;;;9.51;100.00;93260.56;2106793;28;20785;-79
2022/05/11 00:40:58;;;;;;;6.78;6.18;;;;;;;9.44;100.00;93268.69;2106585;28;20140;-80
2022/05/11 00:42:04;;;;;;;7.47;6.15;;;;;;;9.49;100.00;93262.88;2097835;28;20031;-80
2022/05/11 00:43:05;;;;;;;9.00;6.07;;;;;;;9.36;100.00;93264.63;2099534;28;20021;-80
2022/05/11 00:44:09;;;;;;;8.88;6.70;;;;;;;9.32;100.00;93261.25;2101841;28;20117;-79
2022/05/11 00:45:11;;;;;;;7.78;6.22;;;;;;;9.36;100.00;93259.28;2107126;28;20492;-78
2022/05/11 00:46:35;;;;;;;7.05;5.97;;;;;;;9.38;100.00;93262.28;2098166;28;20020;-80
2022/05/11 00:47:43;;;;;;;7.07;6.30;;;;;;;9.36;100.00;93261.94;2109841;28;20051;-79
2022/05/11 00:50:12;;;;;;;7.32;5.88;;;;;;;9.32;100.00;93264.66;2103106;28;20030;-79
2022/05/11 00:51:14;;;;;;;7.32;6.22;;;;;;;9.30;100.00;93255.53;2098863;28;20028;-80
2022/05/11 00:52:38;;;;;;;8.95;6.38;;;;;;;9.27;100.00;93257.13;2097962;28;20024;-80
2022/05/11 00:53:43;;;;;;;10.95;6.38;;;;;;;9.21;100.00;93256.03;2084343;28;20036;-80
2022/05/11 00:55:00;;;;;;;6.97;5.90;;;;;;;9.25;100.00;93258.66;2097971;28;20060;-79
2022/05/11 00:56:01;;;;;;;7.68;6.38;;;;;;;9.26;100.00;93255.63;2094246;28;20031;-79
2022/05/11 00:57:06;;;;;;;7.28;6.57;;;;;;;9.20;100.00;93257.22;2089762;28;20466;-79
2022/05/11 00:58:12;;;;;;;6.63;6.05;;;;;;;9.22;100.00;93264.78;2091881;28;20029;-80
2022/05/11 00:59:24;;;;;;;7.13;6.40;;;;;;;9.21;100.00;93258.72;2106398;28;20024;-80
2022/05/11 01:00:26;;;;;;;7.50;6.80;;;;;;;9.18;100.00;93256.13;2089917;28;20031;-79
2022/05/11 01:01:27;;;;;;;6.65;6.00;;;;;;;9.15;100.00;93251.59;2084434;28;20024;-80
2022/05/11 01:02:28;;;;;;;6.88;5.75;;;;;;;9.19;100.00;93254.94;2095839;28;20024;-80
2022/05/11 01:03:44;;;;;;;9.20;6.55;;;;;;;9.12;100.00;93258.47;2110222;28;20022;-80
2022/05/11 01:04:45;;;;;;;6.15;5.63;;;;;;;9.12;100.00;93257.72;2099956;28;20098;-79
2022/05/11 01:05:47;;;;;;;7.38;6.18;;;;;;;9.12;100.00;93249.72;2098046;28;20021;-80
2022/05/11 01:06:48;;;;;;;7.03;6.43;;;;;;;9.11;100.00;93250.88;2112610;28;20027;-79
2022/05/11 01:07:53;;;;;;;6.63;6.03;;;;;;;9.11;100.00;93254.28;2106380;28;20103;-79
2022/05/11 01:08:54;;;;;;;9.18;6.00;;;;;;;9.10;100.00;93258.13;2104738;28;20027;-79
2022/05/11 01:09:56;;;;;;;7.63;6.75;;;;;;;9.00;100.00;93257.13;2105434;28;20126;-78
2022/05/11 01:11:03;;;;;;;6.93;6.25;;;;;;;9.00;100.00;93259.00;2110791;28;20028;-78
2022/05/11 01:12:09;;;;;;;6.90;6.30;;;;;;;8.96;100.00;93259.06;2107483;28;20024;-79
2022/05/11 01:13:13;;;;;;;6.63;6.03;;;;;;;8.96;100.00;93261.00;2114412;28;20130;-78
2022/05/11 01:14:19;;;;;;;7.63;6.07;;;;;;;8.94;100.00;93256.03;2105169;28;20020;-80
2022/05/11 01:15:21;;;;;;;6.72;6.07;;;;;;;8.91;100.00;93256.88;2107696;27;20045;-78
2022/05/11 01:16:23;;;;;;;6.22;5.72;;;;;;;8.96;100.00;93256.41;2114531;28;20019;-80
2022/05/11 01:17:25;;;;;;;7.30;5.75;;;;;;;8.98;100.00;93259.41;2106668;28;20066;-79
2022/05/11 01:18:27;;;;;;;6.75;6.05;;;;;;;8.94;100.00;93258.69;2106335;28;20016;-78
2022/05/11 01:19:31;;;;;;;8.10;6.10;;;;;;;8.97;100.00;93254.50;2097941;28;20115;-81
2022/05/11 01:20:35;;;;;;;6.20;5.63;;;;;;;9.01;100.00;93258.63;2098858;28;20103;-80
2022/05/11 01:21:45;;;;;;;7.03;6.32;;;;;;;9.02;100.00;93249.47;2106574;28;20154;-81
2022/05/11 01:23:10;;;;;;;6.53;5.90;;;;;;;9.05;100.00;93248.66;2107257;28;20052;-80
2022/05/11 01:24:34;;;;;;;6.10;5.60;;;;;;;9.02;100.00;93241.47;2098797;28;20035;-81
2022/05/11 01:25:35;;;;;;;6.15;5.50;;;;;;;8.99;100.00;93255.59;2115984;27;20485;-82
2022/05/11 01:26:36;;;;;;;6.40;5.40;;;;;;;8.83;100.00;93250.88;2122516;27;20023;-80
2022/05/11 01:27:45;;;;;;;7.60;5.88;;;;;;;8.86;100.00;93243.97;2106272;28;20496;-82
2022/05/11 01:28:49;;;;;;;7.10;5.90;;;;;;;8.85;100.00;93255.03;2107375;28;20048;-81
2022/05/11 01:29:51;;;;;;;6.70;6.03;;;;;;;8.72;100.00;93252.16;2096534;28;20055;-81
2022/05/11 01:31:01;;;;;;;6.15;5.55;;;;;;;8.77;100.00;93252.44;2106324;28;20030;-81
2022/05/11 01:32:03;;;;;;;6.78;6.03;;;;;;;8.67;100.00;93247.25;2114678;28;20026;-80
2022/05/11 01:33:04;;;;;;;8.50;5.85;;;;;;;8.74;100.00;93245.28;2106233;28;20016;-81
2022/05/11 01:34:06;;;;;;;7.10;6.40;;;;;;;8.76;100.00;93248.28;2097635;28;20071;-82
2022/05/11 01:35:07;;;;;;;7.18;5.90;;;;;;;8.67;100.00;93250.69;2081757;28;20072;-82
2022/05/11 01:36:26;;;;;;;7.97;6.38;;;;;;;8.76;100.00;93245.63;2089359;28;20028;-82
2022/05/11 01:37:27;;;;;;;9.32;6.07;;;;;;;8.71;100.00;93255.97;2101517;28;20054;-82
2022/05/11 01:38:39;;;;;;;6.72;6.00;;;;;;;8.69;100.00;93250.28;2097436;28;20025;-81
2022/05/11 01:39:40;;;;;;;6.30;5.78;;;;;;;8.67;100.00;93244.59;2090843;28;20025;-81
2022/05/11 01:40:41;;;;;;;7.13;6.40;;;;;;;8.79;100.00;93249.41;2086265;28;20021;-82
2022/05/11 01:41:52;;;;;;;7.53;5.85;;;;;;;8.74;100.00;93250.59;2102533;28;20027;-82
2022/05/11 01:42:53;;;;;;;6.30;5.70;;;;;;;8.66;100.00;93241.19;2099136;28;20052;-81
2022/05/11 01:43:54;;;;;;;6.20;5.60;;;;;;;8.53;100.00;93248.94;2089380;28;20070;-81
2022/05/11 01:44:55;;;;;;;6.22;5.72;;;;;;;8.49;100.00;93253.56;2106162;28;20058;-81
2022/05/11 01:45:56;;;;;;;7.32;5.85;;;;;;;8.52;100.00;93244.78;2105854;28;20058;-79
2022/05/11 01:46:58;;;;;;;7.05;6.40;;;;;;;8.50;100.00;93252.41;2097733;28;20111;-79
2022/05/11 01:47:59;;;;;;;7.00;6.30;;;;;;;8.47;100.00;93249.78;2090180;28;20079;-79
2022/05/11 01:49:01;;;;;;;7.30;6.07;;;;;;;8.50;100.00;93246.31;2097692;28;20066;-79
2022/05/11 01:50:03;;;;;;;10.60;6.85;;;;;;;8.50;100.00;93247.06;2110894;27;20109;-79
2022/05/11 01:51:04;;;;;;;6.93;6.20;;;;;;;8.44;100.00;93251.34;2089820;28;20025;-78
2022/05/11 01:52:05;;;;;;;11.70;7.00;;;;;;;8.42;100.00;93245.63;2106099;28;20019;-80
2022/05/11 01:53:07;;;;;;;9.43;6.32;;;;;;;8.52;100.00;93252.00;2110720;28;20051;-81
2022/05/11 01:54:08;;;;;;;7.25;6.65;;;;;;;8.53;100.00;93246.28;2089165;28;20021;-81
2022/05/11 01:55:09;;;;;;;8.30;6.25;;;;;;;8.55;100.00;93251.19;2097866;28;20431;-81
2022/05/11 01:56:13;;;;;;;7.55;6.85;;;;;;;8.45;100.00;93252.84;2113491;28;20023;-82
2022/05/11 01:57:14;;;;;;;7.88;6.30;;;;;;;8.47;100.00;93247.88;2102112;28;20028;-81
2022/05/11 01:58:17;;;;;;;7.25;6.55;;;;;;;8.49;100.00;93244.81;2106003;28;20023;-81
2022/05/11 01:59:18;;;;;;;7.47;6.68;;;;;;;8.58;100.00;93248.50;2106045;28;20043;-81
2022/05/11 02:00:19;;;;;;;7.38;6.22;;;;;;;8.58;100.00;93250.41;2106094;28;20020;-81
2022/05/11 02:01:24;;;;;;;7.55;6.88;;;;;;;8.48;100.00;93241.41;2102982;28;20031;-81
2022/05/11 02:02:25;;;;;;;9.20;6.65;;;;;;;8.59;100.00;93241.25;2105651;28;20027;-81
2022/05/11 02:03:26;;;;;;;6.63;5.93;;;;;;;8.47;100.00;93247.88;2097740;28;20021;-81
2022/05/11 02:08:28;;;;;;;7.03;6.32;;;;;;;8.43;100.00;93241.84;2108683;28;20039;-82
2022/05/11 02:09:29;;;;;;;7.32;6.20;;;;;;;8.53;100.00;93240.19;2097565;28;20516;-81
2022/05/11 02:10:30;;;;;;;8.32;6.20;;;;;;;8.48;100.00;93248.63;2089484;28;20029;-82
2022/05/11 02:11:32;;;;;;;13.48;6.18;;;;;;;8.39;100.00;93248.38;2097591;28;20061;-82
2022/05/11 02:12:33;;;;;;;7.25;6.55;;;;;;;8.43;100.00;93244.50;2114529;28;20022;-81
2022/05/11 02:13:34;;;;;;;7.30;6.20;;;;;;;8.43;100.00;93244.50;2105413;28;20024;-81
2022/05/11 02:14:35;;;;;;;8.38;6.97;;;;;;;8.36;100.00;93246.47;2088605;28;20021;-82
2022/05/11 02:15:37;;;;;;;8.05;6.35;;;;;;;8.27;100.00;93239.69;2113436;28;20503;-81
2022/05/11 02:16:38;;;;;;;6.75;6.15;;;;;;;8.35;100.00;93251.03;2122721;27;20038;-80
2022/05/11 02:17:39;;;;;;;7.78;6.10;;;;;;;8.39;100.00;93246.44;2122825;28;20030;-80
2022/05/11 02:18:41;;;;;;;9.25;6.70;;;;;;;8.35;100.00;93244.97;2114422;28;20031;-81
2022/05/11 02:19:57;;;;;;;9.00;6.65;;;;;;;8.21;100.00;93245.84;2105565;28;20024;-82
2022/05/11 02:20:58;;;;;;;7.00;6.30;;;;;;;8.21;100.00;93249.28;2122940;27;20019;-81
2022/05/11 02:21:59;;;;;;;8.43;6.05;;;;;;;8.17;100.00;93245.16;2119558;28;20035;-81
2022/05/11 02:23:00;;;;;;;6.85;6.15;;;;;;;8.23;100.00;93238.22;2105842;28;20035;-82
2022/05/11 02:24:01;;;;;;;7.07;5.90;;;;;;;8.13;100.00;93239.84;2089324;28;20346;-82
2022/05/11 02:25:03;;;;;;;6.43;5.82;;;;;;;8.20;100.00;93242.44;2089358;28;20175;-81
2022/05/11 02:26:08;;;;;;;7.35;6.65;;;;;;;8.22;100.00;93244.72;2088820;28;20032;-82
2022/05/11 02:27:09;;;;;;;8.27;6.28;;;;;;;8.15;100.00;93242.13;2101676;28;20020;-81
2022/05/11 02:28:11;;;;;;;6.88;6.28;;;;;;;8.19;100.00;93243.59;2114083;28;20019;-82
2022/05/11 02:29:11;;;;;;;6.68;5.63;;;;;;;8.15;100.00;93245.53;2122807;28;20015;-81
2022/05/11 02:30:19;;;;;;;7.40;6.03;;;;;;;8.17;100.00;93245.16;2101338;28;20439;-82
2022/05/11 02:31:20;;;;;;;7.30;5.97;;;;;;;8.21;100.00;93241.28;2107013;28;20114;-82
2022/05/11 02:32:21;;;;;;;8.55;5.70;;;;;;;8.09;100.00;93247.13;2108300;28;20043;-81
2022/05/11 02:33:24;;;;;;;8.07;6.20;;;;;;;8.14;100.00;93240.59;2107439;28;20028;-82
2022/05/11 02:35:45;;;;;;;6.90;6.22;;;;;;;8.18;100.00;93236.75;2110830;28;20123;-81
2022/05/11 02:36:46;;;;;;;7.00;6.30;;;;;;;8.28;100.00;93237.78;2114328;28;20146;-81
2022/05/11 02:37:52;;;;;;;6.78;6.03;;;;;;;8.14;100.00;93241.38;2113982;28;20020;-81
2022/05/11 02:38:53;;;;;;;7.63;6.05;;;;;;;8.15;100.00;93239.44;2121506;28;20098;-81
2022/05/11 02:39:54;;;;;;;9.07;5.88;;;;;;;8.07;100.00;93236.09;2105890;28;20020;-82
2022/05/11 02:40:56;;;;;;;6.95;6.18;;;;;;;8.07;100.00;93233.44;2093157;28;20455;-81
2022/05/11 02:41:57;;;;;;;8.38;6.90;;;;;;;8.21;100.00;93238.63;2101141;28;20035;-79
2022/05/11 02:43:01;;;;;;;7.63;6.60;;;;;;;8.12;100.00;93234.91;2097354;28;20036;-80
2022/05/11 02:44:03;;;;;;;7.75;6.50;;;;;;;8.02;100.00;93233.88;2093159;28;20107;-80
2022/05/11 02:45:05;;;;;;;8.70;5.88;;;;;;;8.03;100.00;93232.72;2097520;28;20111;-79
2022/05/11 02:46:06;;;;;;;6.72;6.10;;;;;;;8.04;100.00;93227.00;2084579;28;20451;-78
2022/05/11 02:47:07;;;;;;;7.20;6.30;;;;;;;8.08;100.00;93229.66;2089380;28;20025;-79
2022/05/11 02:48:10;;;;;;;7.68;6.88;;;;;;;8.05;100.00;93241.84;2109378;28;20055;-78
2022/05/11 02:49:11;;;;;;;10.63;7.57;;;;;;;8.01;100.00;93235.78;2097755;28;20444;-79
2022/05/11 02:50:18;;;;;;;7.78;6.47;;;;;;;8.00;100.00;93228.22;2104999;28;20024;-80
2022/05/11 02:51:21;;;;;;;7.25;6.10;;;;;;;7.96;100.00;93228.22;2097285;28;20024;-79
2022/05/11 02:52:22;;;;;;;8.75;6.70;;;;;;;7.95;100.00;93241.94;2092024;28;20025;-80
2022/05/11 02:53:25;;;;;;;10.32;6.68;;;;;;;7.97;100.00;93231.66;2105683;28;20016;-80
2022/05/11 02:54:26;;;;;;;7.78;6.45;;;;;;;7.96;100.00;93232.81;2096928;28;20016;-79
2022/05/11 02:55:27;;;;;;;9.02;6.80;;;;;;;7.96;100.00;93238.88;2089284;28;20017;-82
2022/05/11 02:56:28;;;;;;;6.78;6.20;;;;;;;7.95;100.00;93241.94;2098921;28;20028;-81
2022/05/11 02:57:29;;;;;;;7.03;6.32;;;;;;;7.90;100.00;93231.72;2105922;28;20056;-81
2022/05/11 02:58:34;;;;;;;8.68;6.88;;;;;;;7.89;100.00;93238.19;2114536;28;20068;-81
2022/05/11 02:59:35;;;;;;;7.65;6.55;;;;;;;7.91;100.00;93235.91;2105655;28;20490;-81
2022/05/11 03:00:37;;;;;;;8.00;5.93;;;;;;;7.95;100.00;93241.94;2089153;28;20381;-81
2022/05/11 03:01:39;;;;;;;9.15;6.32;;;;;;;7.97;100.00;93237.72;2093749;28;20036;-81
2022/05/11 03:02:40;;;;;;;6.57;5.97;;;;;;;7.90;100.00;93248.47;2102193;28;20023;-82
2022/05/11 03:03:41;;;;;;;8.40;5.88;;;;;;;7.83;100.00;93237.88;2105957;28;20028;-82
2022/05/11 03:04:42;;;;;;;6.95;6.22;;;;;;;7.89;100.00;93238.94;2113988;28;20019;-81
2022/05/11 03:05:44;;;;;;;6.20;5.57;;;;;;;7.87;100.00;93235.19;2097201;28;20104;-81
2022/05/11 03:06:47;;;;;;;6.80;5.72;;;;;;;7.92;100.00;93232.09;2097735;28;20406;-81
2022/05/11 03:07:48;;;;;;;6.25;5.75;;;;;;;7.88;100.00;93232.13;2097478;28;20115;-82
2022/05/11 03:08:49;;;;;;;6.55;5.95;;;;;;;7.79;100.00;93234.47;2089155;28;20079;-81
2022/05/11 03:09:52;;;;;;;6.70;5.60;;;;;;;7.73;100.00;93233.41;2089170;28;20470;-82
2022/05/11 03:10:53;;;;;;;5.78;5.28;;;;;;;7.69;100.00;93230.03;2081398;28;20470;-81
2022/05/11 03:11:55;;;;;;;6.65;6.05;;;;;;;7.68;100.00;93229.28;2091240;28;20021;-80
2022/05/11 03:12:57;;;;;;;5.82;5.32;;;;;;;7.71;100.00;93236.44;2089349;28;20059;-80
2022/05/11 03:13:58;;;;;;;5.78;5.20;;;;;;;7.72;100.00;93243.28;2087873;28;20024;-81
2022/05/11 03:15:00;;;;;;;5.78;5.28;;;;;;;7.74;100.00;93232.25;2105764;28;20027;-78
2022/05/11 03:16:01;;;;;;;5.85;5.32;;;;;;;7.71;100.00;93231.13;2097520;28;20021;-78
2022/05/11 03:17:03;;;;;;;5.72;5.13;;;;;;;7.77;100.00;93226.13;2090862;28;20477;-79
2022/05/11 03:18:04;;;;;;;4.82;4.43;;;;;;;7.72;100.00;93231.88;2098962;28;20017;-80
2022/05/11 03:19:05;;;;;;;5.93;5.32;;;;;;;7.67;100.00;93232.31;2107112;28;20356;-79
2022/05/11 03:20:14;;;;;;;7.45;5.20;;;;;;;7.65;100.00;93235.38;2108609;28;20027;-78
2022/05/11 03:21:16;;;;;;;5.72;4.97;;;;;;;7.65;100.00;93223.97;2100619;28;20587;-78
2022/05/11 03:22:17;;;;;;;5.70;5.20;;;;;;;7.68;100.00;93231.94;2098978;28;20568;-80
2022/05/11 03:23:18;;;;;;;5.13;4.72;;;;;;;7.63;100.00;93237.66;2107504;28;20483;-79
2022/05/11 03:24:19;;;;;;;5.60;5.07;;;;;;;7.66;100.00;93239.53;2111741;28;20058;-80
2022/05/11 03:25:23;;;;;;;6.05;5.45;;;;;;;7.63;100.00;93231.59;2090445;28;20032;-78
2022/05/11 03:26:24;;;;;;;5.70;5.15;;;;;;;7.61;100.00;93239.97;2090805;28;20025;-79
2022/05/11 03:27:25;;;;;;;6.15;5.65;;;;;;;7.63;100.00;93236.91;2098742;28;20052;-80
2022/05/11 03:28:26;;;;;;;6.68;6.03;;;;;;;7.63;100.00;93236.91;2090744;28;20081;-81
2022/05/11 03:29:28;;;;;;;6.13;5.53;;;;;;;7.61;100.00;93239.97;2078536;28;20037;-80
2022/05/11 03:30:29;;;;;;;6.20;5.60;;;;;;;7.55;100.00;93229.00;2090798;28;20919;-81
2022/05/11 03:31:33;;;;;;;6.57;6.07;;;;;;;7.52;100.00;93237.75;2098680;28;20054;-81
2022/05/11 03:35:14;;;;;;;6.10;5.45;;;;;;;7.62;100.00;93230.06;2110991;27;20031;-80
2022/05/11 03:36:15;;;;;;;8.18;5.63;;;;;;;7.55;100.00;93226.34;2107116;28;20023;-81
2022/05/11 03:37:19;;;;;;;6.40;5.85;;;;;;;7.55;100.00;93229.00;2114429;28;20510;-81
2022/05/11 03:38:19;;;;;;;6.03;5.22;;;;;;;7.55;100.00;93225.56;2098448;28;20055;-82
2022/05/11 03:39:21;;;;;;;5.75;5.15;;;;;;;7.53;100.00;93231.28;2098852;28;20027;-81
2022/05/11 03:40:23;;;;;;;6.18;5.57;;;;;;;7.48;100.00;93226.38;2098744;28;20024;-81
2022/05/11 03:41:24;;;;;;;6.95;5.97;;;;;;;7.54;100.00;93227.47;2090545;28;20029;-81
2022/05/11 03:42:28;;;;;;;6.72;6.13;;;;;;;7.49;100.00;93219.91;2096885;28;20759;-81
2022/05/11 03:43:29;;;;;;;6.38;5.82;;;;;;;7.42;100.00;93222.66;2107075;28;20032;-81
2022/05/11 03:44:31;;;;;;;7.18;6.47;;;;;;;7.48;100.00;93225.63;2098521;28;20481;-81
2022/05/11 03:45:32;;;;;;;7.25;6.47;;;;;;;7.51;100.00;93225.63;2095345;28;20028;-81
2022/05/11 03:46:33;;;;;;;7.00;6.40;;;;;;;7.54;100.00;93222.16;2090414;28;20035;-81
2022/05/11 03:47:34;;;;;;;6.97;6.40;;;;;;;7.45;100.00;93231.72;2107031;28;20035;-81
2022/05/11 03:48:37;;;;;;;7.32;6.63;;;;;;;7.46;100.00;93222.59;2111487;28;20053;-81
2022/05/11 03:49:38;;;;;;;7.47;6.57;;;;;;;7.47;100.00;93222.22;2106713;28;20023;-82
2022/05/11 03:50:39;;;;;;;6.90;6.30;;;;;;;7.63;100.00;93232.34;2106384;28;20020;-81
2022/05/11 03:51:40;;;;;;;8.50;6.90;;;;;;;7.56;100.00;93219.13;2112110;28;20479;-81
2022/05/11 03:52:42;;;;;;;7.53;6.63;;;;;;;7.83;100.00;93220.00;2106904;28;20027;-81
2022/05/11 03:53:43;;;;;;;8.43;6.70;;;;;;;7.60;100.00;93221.75;2098786;28;20020;-81
2022/05/11 03:54:44;;;;;;;7.35;6.65;;;;;;;7.57;100.00;93223.28;2098617;28;20017;-80
2022/05/11 03:55:45;;;;;;;6.95;6.35;;;;;;;7.53;100.00;93220.66;2115326;28;20698;-82
2022/05/11 03:56:46;;;;;;;7.22;6.50;;;;;;;7.56;100.00;93225.19;2124627;27;20027;-81
2022/05/11 03:57:48;;;;;;;6.97;6.38;;;;;;;7.57;100.00;93224.03;2123849;27;20019;-81
2022/05/11 03:58:49;;;;;;;7.80;7.07;;;;;;;7.47;100.00;93226.78;2123783;27;20072;-81
2022/05/11 03:59:50;;;;;;;7.30;6.60;;;;;;;7.38;100.00;93223.81;2123912;27;20053;-81
2022/05/11 04:00:51;;;;;;;7.22;6.63;;;;;;;7.44;100.00;93217.69;2120770;27;20027;-81
2022/05/11 04:01:52;;;;;;;8.73;7.28;;;;;;;7.47;100.00;93224.13;2106320;28;20078;-81
2022/05/11 04:02:55;;;;;;;7.80;7.10;;;;;;;7.48;100.00;93226.38;2089853;28;20017;-81
2022/05/11 04:03:56;;;;;;;6.70;6.10;;;;;;;7.54;100.00;93219.50;2099222;28;20104;-82
2022/05/11 04:04:58;;;;;;;7.45;6.75;;;;;;;7.54;100.00;93224.06;2122975;27;20023;-81
2022/05/11 04:05:59;;;;;;;7.60;6.80;;;;;;;7.56;100.00;93224.44;2123535;27;20392;-80
2022/05/11 04:07:00;;;;;;;7.95;6.80;;;;;;;7.55;100.00;93221.03;2115504;28;20043;-81
2022/05/11 04:08:01;;;;;;;7.15;6.45;;;;;;;7.79;100.00;93229.16;2106635;28;20028;-81
2022/05/11 04:09:03;;;;;;;6.97;6.38;;;;;;;7.66;100.00;93223.56;2106923;28;20422;-81
2022/05/11 04:10:05;;;;;;;7.18;6.53;;;;;;;7.68;100.00;93231.16;2106955;28;20031;-81
2022/05/11 04:11:06;;;;;;;8.23;6.72;;;;;;;7.71;100.00;93225.06;2106778;28;20591;-81
2022/05/11 04:12:08;;;;;;;8.10;7.30;;;;;;;7.60;100.00;93219.84;2098605;28;20032;-82
2022/05/11 04:13:11;;;;;;;10.23;7.07;;;;;;;7.66;100.00;93225.47;2098380;28;20044;-81
2022/05/11 04:14:12;;;;;;;7.50;6.82;;;;;;;7.74;100.00;93217.03;2106232;28;20024;-82
2022/05/11 04:15:14;;;;;;;6.97;6.38;;;;;;;7.81;100.00;93222.31;2098604;28;20484;-82
2022/05/11 04:16:16;;;;;;;7.07;6.47;;;;;;;7.71;100.00;93225.06;2097802;28;20028;-82
2022/05/11 04:17:17;;;;;;;7.22;6.47;;;;;;;7.84;100.00;93231.38;2098478;28;20024;-82
2022/05/11 04:18:19;;;;;;;7.65;6.65;;;;;;;7.80;100.00;93218.13;2090386;28;20058;-81
2022/05/11 04:19:20;;;;;;;7.10;6.50;;;;;;;7.73;100.00;93225.44;2098377;28;20027;-81
2022/05/11 04:20:21;;;;;;;7.10;6.47;;;;;;;7.71;100.00;93227.72;2090394;28;20025;-81
2022/05/11 04:21:22;;;;;;;8.65;7.00;;;;;;;7.68;100.00;93229.28;2090070;28;20021;-81
2022/05/11 04:22:23;;;;;;;7.68;6.97;;;;;;;7.75;100.00;93220.47;2096066;28;20035;-81
2022/05/11 04:23:24;;;;;;;6.78;6.18;;;;;;;7.72;100.00;93224.66;2098264;28;20031;-81
2022/05/11 04:24:25;;;;;;;6.85;6.25;;;;;;;7.75;100.00;93221.22;2090196;28;20029;-81
2022/05/11 04:25:26;;;;;;;8.10;6.90;;;;;;;7.64;100.00;93233.09;2089808;28;20024;-81
2022/05/11 04:26:30;;;;;;;7.93;7.05;;;;;;;7.68;100.00;93220.50;2099357;28;20032;-81
2022/05/11 04:27:33;;;;;;;7.38;6.70;;;;;;;7.66;100.00;93228.91;2099002;28;20020;-81
2022/05/11 04:28:34;;;;;;;7.57;6.53;;;;;;;7.65;100.00;93223.97;2107282;27;20605;-81
2022/05/11 04:29:40;;;;;;;7.45;6.80;;;;;;;7.75;100.00;93223.13;2115305;27;20081;-81
2022/05/11 04:30:41;;;;;;;7.75;6.95;;;;;;;7.94;100.00;93221.78;2106642;28;20028;-82
2022/05/11 04:31:43;;;;;;;7.40;6.70;;;;;;;7.93;100.00;93223.69;2090103;28;20617;-81
2022/05/11 04:32:44;;;;;;;11.63;7.10;;;;;;;8.01;100.00;93222.47;2106593;28;20469;-82
2022/05/11 04:33:50;;;;;;;7.50;6.90;;;;;;;8.01;100.00;93227.03;2121545;27;20098;-82
2022/05/11 04:34:51;;;;;;;7.85;7.13;;;;;;;7.97;100.00;93218.34;2115121;28;20660;-82
2022/05/11 04:35:56;;;;;;;7.38;6.20;;;;;;;7.91;100.00;93219.94;2098935;28;20634;-83
2022/05/11 04:36:58;;;;;;;8.02;6.97;;;;;;;7.73;100.00;93225.44;2090849;28;20048;-81
2022/05/11 04:38:01;;;;;;;6.90;6.28;;;;;;;7.76;100.00;93229.94;2104020;28;20066;-81
2022/05/11 04:39:02;;;;;;;7.38;6.50;;;;;;;7.79;100.00;93221.94;2118023;27;20019;-82
2022/05/11 04:40:04;;;;;;;7.57;6.75;;;;;;;7.78;100.00;93225.00;2123606;27;20042;-81
2022/05/11 04:41:05;;;;;;;6.97;6.28;;;;;;;7.76;100.00;93224.63;2115071;28;20032;-82
2022/05/11 04:42:07;;;;;;;7.15;6.50;;;;;;;7.82;100.00;93228.38;2110831;28;20023;-81
2022/05/11 04:43:10;;;;;;;7.10;6.50;;;;;;;7.78;100.00;93222.34;2106328;28;20027;-82
2022/05/11 04:44:11;;;;;;;7.55;6.88;;;;;;;7.91;100.00;93220.69;2090177;28;20708;-81
2022/05/11 04:45:13;;;;;;;7.35;6.65;;;;;;;7.76;100.00;93225.38;2081795;28;20462;-81
2022/05/11 04:46:14;;;;;;;6.97;6.40;;;;;;;7.85;100.00;93221.50;2090079;28;20025;-80
2022/05/11 04:47:19;;;;;;;7.40;6.60;;;;;;;7.89;100.00;93222.22;2107681;28;20023;-82
2022/05/11 04:48:20;;;;;;;7.10;6.50;;;;;;;7.95;100.00;93218.75;2107020;28;20024;-80
2022/05/11 04:49:21;;;;;;;9.35;6.63;;;;;;;8.03;100.00;93222.06;2106426;28;20023;-81
2022/05/11 04:50:21;;;;;;;7.80;7.03;;;;;;;7.95;100.00;93221.41;2108372;28;20024;-81
2022/05/11 04:51:23;;;;;;;7.40;6.70;;;;;;;7.97;100.00;93219.09;2114956;27;20058;-80
2022/05/11 04:52:24;;;;;;;9.38;6.88;;;;;;;8.09;100.00;93220.50;2114697;28;20480;-81
2022/05/11 04:53:25;;;;;;;8.10;7.03;;;;;;;8.07;100.00;93218.22;2099220;28;20035;-81
2022/05/11 04:54:41;;;;;;;7.95;7.05;;;;;;;8.08;100.00;93225.06;2097851;28;20086;-80
2022/05/11 04:55:44;;;;;;;7.75;6.95;;;;;;;8.21;100.00;93222.66;2080968;28;20410;-81
2022/05/11 04:56:45;;;;;;;8.05;7.35;;;;;;;8.10;100.00;93219.34;2091330;28;20024;-81
2022/05/11 04:57:48;;;;;;;7.45;6.85;;;;;;;8.18;100.00;93220.78;2097839;28;20032;-80
2022/05/11 04:58:50;;;;;;;8.05;7.07;;;;;;;8.43;100.00;93225.84;2106464;28;20089;-81
2022/05/11 04:59:52;;;;;;;7.43;6.57;;;;;;;8.38;100.00;93230.84;2099572;28;20092;-81
2022/05/11 05:00:54;;;;;;;8.07;7.28;;;;;;;8.21;100.00;93221.88;2098079;28;20113;-81
2022/05/11 05:01:57;;;;;;;8.60;7.25;;;;;;;8.23;100.00;93230.25;2097671;28;20067;-81
2022/05/11 05:02:58;;;;;;;7.53;6.82;;;;;;;8.29;100.00;93224.06;2089820;28;20035;-82
2022/05/11 05:03:59;;;;;;;7.55;6.85;;;;;;;8.29;100.00;93218.00;2097444;28;20036;-80
2022/05/11 05:05:01;;;;;;;7.75;7.03;;;;;;;8.24;100.00;93226.41;2092910;28;20047;-83